sensor_id;sensor_type;location;lat;lon;timestamp;pressure;altitude;pressure_sealevel;temperature;humidity
77824;BME280;67015;46.242;6.028;2023-03-23T00:28:33;96337.0;;;14.11;51.49
77824;BME280;67015;46.242;6.028;2023-03-23T00:58:33;96337.0;;;13.41;56.46
77824;BME280;67015;46.242;6.028;2023-03-23T01:28:33;96313.0;;;13.06;56.36
77824;BME280;67015;46.242;6.028;2023-03-23T01:58:34;96315.0;;;13.29;53.35
77824;BME280;67015;46.242;6.028;2023-03-23T02:58:34;96269.0;;;13.49;52.9
77824;BME280;67015;46.242;6.028;2023-03-23T03:28:33;96258.0;;;13.26;55.24
77824;BME280;67015;46.242;6.028;2023-03-23T03:58:33;96240.0;;;13.06;58.85
77824;BME280;67015;46.242;6.028;2023-03-23T04:28:33;96251.0;;;12.71;59.97
77824;BME280;67015;46.242;6.028;2023-03-23T04:58:33;96261.0;;;12.68;60.53
77824;BME280;67015;46.242;6.028;2023-03-23T05:28:33;96255.0;;;12.33;62.65
77824;BME280;67015;46.242;6.028;2023-03-23T05:58:33;96272.0;;;12.22;63.35
77824;BME280;67015;46.242;6.028;2023-03-23T06:28:33;96301.0;;;12.38;64.38
77824;BME280;67015;46.242;6.028;2023-03-23T06:58:33;96301.0;;;12.58;62.66
77824;BME280;67015;46.242;6.028;2023-03-23T07:28:34;96317.0;;;12.66;61.76
77824;BME280;67015;46.242;6.028;2023-03-23T07:58:33;96325.0;;;13.21;60.9
77824;BME280;67015;46.242;6.028;2023-03-23T08:28:32;96317.0;;;13.89;57.25
77824;BME280;67015;46.242;6.028;2023-03-23T08:58:33;96336.0;;;14.64;54.94
77824;BME280;67015;46.242;6.028;2023-03-23T09:28:33;96341.0;;;15.19;53.17
77824;BME280;67015;46.242;6.028;2023-03-23T09:58:35;96334.0;;;15.97;52.97
77824;BME280;67015;46.242;6.028;2023-03-23T10:28:35;96350.0;;;16.15;50.23
77824;BME280;67015;46.242;6.028;2023-03-23T10:58:34;96358.0;;;17.17;48.11
77824;BME280;67015;46.242;6.028;2023-03-23T11:28:33;96344.0;;;16.93;44.16
77824;BME280;67015;46.242;6.028;2023-03-23T11:58:32;96351.0;;;16.85;47.03
77824;BME280;67015;46.242;6.028;2023-03-23T12:28:35;96360.0;;;16.8;46.67
77824;BME280;67015;46.242;6.028;2023-03-23T12:58:33;96384.0;;;15.88;56.51
77824;BME280;67015;46.242;6.028;2023-03-23T13:28:33;96366.0;;;16.18;56.77
77824;BME280;67015;46.242;6.028;2023-03-23T13:58:43;96339.0;;;15.99;56.08
77824;BME280;67015;46.242;6.028;2023-03-23T14:28:35;96309.0;;;15.71;54.33
77824;BME280;67015;46.242;6.028;2023-03-23T14:58:32;96307.0;;;16.32;53.85
77824;BME280;67015;46.242;6.028;2023-03-23T15:28:32;96278.0;;;16.52;52.26
77824;BME280;67015;46.242;6.028;2023-03-23T16:58:32;96263.0;;;16.76;51.87
77824;BME280;67015;46.242;6.028;2023-03-23T16:58:32;96226.0;;;16.58;52.96
77824;BME280;67015;46.242;6.028;2023-03-23T16:58:33;96216.0;;;16.3;53.05
77824;BME280;67015;46.242;6.028;2023-03-23T17:28:32;96196.0;;;15.72;54.41
77824;BME280;67015;46.242;6.028;2023-03-23T17:58:35;96209.0;;;15.08;58.91
77824;BME280;67015;46.242;6.028;2023-03-23T18:28:33;96209.0;;;14.32;65.27
77824;BME280;67015;46.242;6.028;2023-03-23T18:58:32;96199.0;;;13.79;66.96
77824;BME280;67015;46.242;6.028;2023-03-23T19:28:31;96173.0;;;13.35;67.91
77824;BME280;67015;46.242;6.028;2023-03-23T19:58:31;96173.0;;;12.94;69.28
77824;BME280;67015;46.242;6.028;2023-03-23T20:28:31;96230.0;;;12.9;70.8
77824;BME280;67015;46.242;6.028;2023-03-23T20:58:32;96242.0;;;13.34;73.63
77824;BME280;67015;46.242;6.028;2023-03-23T21:28:31;96209.0;;;13.28;74.79
77824;BME280;67015;46.242;6.028;2023-03-23T21:58:31;96194.0;;;13.12;75.79
77824;BME280;67015;46.242;6.028;2023-03-23T22:28:32;96178.0;;;13.17;76.66
77824;BME280;67015;46.242;6.028;2023-03-23T22:58:32;96172.0;;;13.06;76.17
77824;BME280;67015;46.242;6.028;2023-03-23T23:28:31;96148.0;;;13.13;74.74
77824;BME280;67015;46.242;6.028;2023-03-23T23:58:32;96120.0;;;12.96;77.05
